logo
Rechercher aéroport 
image banner adimage banner adimage banner ad
image banner ad

74CN - Camatta Ranch Airstrip

Situé à Paso Robles, United States

ICAO - 74CN, IATA -

Données fournies par Airmate  

Information générale

Coordonnées: N35°28'35" W120°18'32"
Élévation : 1358 feet MSL.
 
Voir autres Aéroports à California

Données opérationnelles

Special qualification required
Heure actuelle UTC:
Heure actuelle locale:
Météo à : KPRB - Paso Robles Muni ( 36 km )
METAR: KPRB 130353Z AUTO 27010KT 10SM BKN100 23/07 A2990 RMK AO2 SLP116 T02330072
TAF: KPRB 122321Z 1300/1324 22015KT P6SM SCT100 FM130800 30007KT P6SM SKC FM131200 VRB03KT P6SM SKC FM132000 22013KT P6SM SKC
Voir NOTAMs / SUP AIP / TFR affectant cet aéroport [VIEW]
Fréquences de communication: [VIEW]

Pistes:

Identifiant RWYQFULongueur (ft)Largeur (ft)SurfaceLDA (ft)
11251535ASPH
29251535ASPH

Coordonnées de l'aéroport

Adresse: Paso Robles United States

Vue satellite de 74CN